sensor_id;sensor_type;location;lat;lon;timestamp;pressure;altitude;pressure_sealevel;temperature;humidity
39897;BME280;25567;48.276;14.242;2022-10-26T00:01:30;98719.13;;;7.48;100.00
39897;BME280;25567;48.276;14.242;2022-10-26T00:03:57;98723.00;;;7.52;100.00
39897;BME280;25567;48.276;14.242;2022-10-26T00:06:24;98725.84;;;7.57;100.00
39897;BME280;25567;48.276;14.242;2022-10-26T00:08:52;98718.94;;;7.56;100.00
39897;BME280;25567;48.276;14.242;2022-10-26T00:11:21;98726.44;;;7.53;100.00
39897;BME280;25567;48.276;14.242;2022-10-26T00:13:48;98723.00;;;7.52;100.00
39897;BME280;25567;48.276;14.242;2022-10-26T00:16:17;98728.88;;;7.61;100.00
39897;BME280;25567;48.276;14.242;2022-10-26T00:18:44;98719.53;;;7.58;100.00
39897;BME280;25567;48.276;14.242;2022-10-26T00:21:11;98720.75;;;7.42;100.00
39897;BME280;25567;48.276;14.242;2022-10-26T00:23:38;98725.22;;;7.48;100.00
39897;BME280;25567;48.276;14.242;2022-10-26T00:26:05;98719.94;;;7.42;100.00
39897;BME280;25567;48.276;14.242;2022-10-26T00:28:32;98709.59;;;7.40;100.00
39897;BME280;25567;48.276;14.242;2022-10-26T00:31:01;98703.69;;;7.45;100.00
39897;BME280;25567;48.276;14.242;2022-10-26T00:33:28;98705.75;;;7.43;100.00
39897;BME280;25567;48.276;14.242;2022-10-26T00:35:55;98699.22;;;7.39;100.00
39897;BME280;25567;48.276;14.242;2022-10-26T00:38:22;98699.41;;;7.30;100.00
39897;BME280;25567;48.276;14.242;2022-10-26T00:40:49;98698.41;;;7.25;100.00
39897;BME280;25567;48.276;14.242;2022-10-26T00:43:36;98711.16;;;7.14;100.00
39897;BME280;25567;48.276;14.242;2022-10-26T00:46:06;98706.91;;;7.20;100.00
39897;BME280;25567;48.276;14.242;2022-10-26T00:48:35;98695.56;;;7.26;100.00
39897;BME280;25567;48.276;14.242;2022-10-26T00:51:08;98697.41;;;7.26;100.00
39897;BME280;25567;48.276;14.242;2022-10-26T00:53:36;98702.03;;;7.17;100.00
39897;BME280;25567;48.276;14.242;2022-10-26T00:56:03;98690.47;;;7.18;100.00
39897;BME280;25567;48.276;14.242;2022-10-26T00:58:30;98698.41;;;7.18;100.00
39897;BME280;25567;48.276;14.242;2022-10-26T01:00:57;98705.47;;;7.11;100.00
39897;BME280;25567;48.276;14.242;2022-10-26T01:03:24;98709.72;;;7.05;100.00
39897;BME280;25567;48.276;14.242;2022-10-26T01:05:56;98712.34;;;6.98;100.00
39897;BME280;25567;48.276;14.242;2022-10-26T01:08:24;98706.47;;;6.96;100.00
39897;BME280;25567;48.276;14.242;2022-10-26T01:10:55;98702.41;;;6.94;100.00
39897;BME280;25567;48.276;14.242;2022-10-26T01:13:24;98702.56;;;6.92;100.00
39897;BME280;25567;48.276;14.242;2022-10-26T01:16:12;98703.84;;;6.96;100.00
39897;BME280;25567;48.276;14.242;2022-10-26T01:19:04;98694.09;;;6.97;100.00
39897;BME280;25567;48.276;14.242;2022-10-26T01:21:59;98687.16;;;6.89;100.00
39897;BME280;25567;48.276;14.242;2022-10-26T01:27:19;98691.84;;;6.87;100.00
39897;BME280;25567;48.276;14.242;2022-10-26T01:29:50;98694.84;;;6.84;100.00
39897;BME280;25567;48.276;14.242;2022-10-26T01:32:26;98693.41;;;6.81;100.00
39897;BME280;25567;48.276;14.242;2022-10-26T01:34:58;98701.13;;;6.83;100.00
39897;BME280;25567;48.276;14.242;2022-10-26T01:37:30;98706.03;;;6.86;100.00
39897;BME280;25567;48.276;14.242;2022-10-26T01:40:06;98701.97;;;6.90;100.00
39897;BME280;25567;48.276;14.242;2022-10-26T01:42:41;98690.22;;;6.93;100.00
39897;BME280;25567;48.276;14.242;2022-10-26T01:45:11;98695.69;;;6.91;100.00
39897;BME280;25567;48.276;14.242;2022-10-26T01:47:40;98689.38;;;6.85;100.00
39897;BME280;25567;48.276;14.242;2022-10-26T01:50:08;98688.16;;;6.88;100.00
39897;BME280;25567;48.276;14.242;2022-10-26T01:52:35;98678.84;;;6.92;100.00
39897;BME280;25567;48.276;14.242;2022-10-26T01:55:06;98667.09;;;6.95;100.00
39897;BME280;25567;48.276;14.242;2022-10-26T01:57:50;98663.88;;;6.99;100.00
39897;BME280;25567;48.276;14.242;2022-10-26T02:00:17;98666.06;;;6.89;100.00
39897;BME280;25567;48.276;14.242;2022-10-26T02:03:01;98665.47;;;6.87;100.00
39897;BME280;25567;48.276;14.242;2022-10-26T02:05:50;98664.84;;;6.78;100.00
39897;BME280;25567;48.276;14.242;2022-10-26T02:11:14;98662.59;;;6.68;100.00
39897;BME280;25567;48.276;14.242;2022-10-26T02:14:16;98657.91;;;6.71;100.00
39897;BME280;25567;48.276;14.242;2022-10-26T02:19:31;98655.31;;;6.84;100.00
39897;BME280;25567;48.276;14.242;2022-10-26T02:24:34;98646.00;;;6.95;100.00
39897;BME280;25567;48.276;14.242;2022-10-26T02:27:03;98652.69;;;6.97;100.00
39897;BME280;25567;48.276;14.242;2022-10-26T02:29:32;98648.25;;;6.98;100.00
39897;BME280;25567;48.276;14.242;2022-10-26T02:32:01;98655.53;;;7.03;100.00
39897;BME280;25567;48.276;14.242;2022-10-26T02:34:29;98656.97;;;6.98;100.00
39897;BME280;25567;48.276;14.242;2022-10-26T02:37:01;98662.22;;;6.85;100.00
39897;BME280;25567;48.276;14.242;2022-10-26T02:39:31;98661.59;;;6.83;100.00
39897;BME280;25567;48.276;14.242;2022-10-26T02:42:02;98663.63;;;6.88;100.00
39897;BME280;25567;48.276;14.242;2022-10-26T02:44:36;98665.06;;;6.83;100.00
39897;BME280;25567;48.276;14.242;2022-10-26T02:47:08;98668.28;;;6.85;100.00
39897;BME280;25567;48.276;14.242;2022-10-26T02:49:35;98650.88;;;6.91;100.00
39897;BME280;25567;48.276;14.242;2022-10-26T02:57:00;98650.47;;;6.94;100.00
39897;BME280;25567;48.276;14.242;2022-10-26T02:59:33;98649.69;;;7.00;100.00
39897;BME280;25567;48.276;14.242;2022-10-26T03:02:03;98649.69;;;7.07;100.00
39897;BME280;25567;48.276;14.242;2022-10-26T03:04:31;98654.56;;;7.10;100.00
39897;BME280;25567;48.276;14.242;2022-10-26T03:06:58;98660.25;;;7.14;100.00
39897;BME280;25567;48.276;14.242;2022-10-26T03:09:26;98661.88;;;7.15;100.00
39897;BME280;25567;48.276;14.242;2022-10-26T03:11:52;98661.47;;;7.11;100.00
39897;BME280;25567;48.276;14.242;2022-10-26T03:14:19;98661.25;;;7.13;100.00
39897;BME280;25567;48.276;14.242;2022-10-26T03:16:46;98662.06;;;7.13;100.00
39897;BME280;25567;48.276;14.242;2022-10-26T03:19:14;98661.66;;;7.10;100.00
39897;BME280;25567;48.276;14.242;2022-10-26T03:21:40;98680.13;;;7.10;100.00
39897;BME280;25567;48.276;14.242;2022-10-26T03:24:08;98685.78;;;7.07;100.00
39897;BME280;25567;48.276;14.242;2022-10-26T03:26:35;98690.06;;;7.08;100.00
39897;BME280;25567;48.276;14.242;2022-10-26T03:29:02;98683.78;;;7.09;100.00
39897;BME280;25567;48.276;14.242;2022-10-26T03:31:29;98693.91;;;7.12;100.00
39897;BME280;25567;48.276;14.242;2022-10-26T03:33:56;98697.19;;;7.14;100.00
39897;BME280;25567;48.276;14.242;2022-10-26T03:36:22;98694.53;;;7.21;100.00
39897;BME280;25567;48.276;14.242;2022-10-26T03:38:49;98692.72;;;7.21;100.00
39897;BME280;25567;48.276;14.242;2022-10-26T03:41:15;98694.34;;;7.22;100.00
39897;BME280;25567;48.276;14.242;2022-10-26T03:43:42;98726.81;;;7.23;100.00
39897;BME280;25567;48.276;14.242;2022-10-26T03:46:09;98740.41;;;7.26;100.00
39897;BME280;25567;48.276;14.242;2022-10-26T03:48:36;98717.50;;;7.33;100.00
39897;BME280;25567;48.276;14.242;2022-10-26T03:51:02;98692.94;;;7.40;100.00
39897;BME280;25567;48.276;14.242;2022-10-26T03:53:29;98670.41;;;7.44;100.00
39897;BME280;25567;48.276;14.242;2022-10-26T03:55:56;98669.81;;;7.48;100.00
39897;BME280;25567;48.276;14.242;2022-10-26T03:58:22;98671.44;;;7.56;100.00
39897;BME280;25567;48.276;14.242;2022-10-26T04:00:49;98683.00;;;7.82;100.00
39897;BME280;25567;48.276;14.242;2022-10-26T04:03:16;98698.63;;;7.90;100.00
39897;BME280;25567;48.276;14.242;2022-10-26T04:05:43;98714.69;;;7.82;100.00
39897;BME280;25567;48.276;14.242;2022-10-26T04:08:09;98707.38;;;7.77;100.00
39897;BME280;25567;48.276;14.242;2022-10-26T04:10:36;98695.19;;;7.76;100.00
39897;BME280;25567;48.276;14.242;2022-10-26T04:13:03;98689.06;;;7.76;100.00
39897;BME280;25567;48.276;14.242;2022-10-26T04:15:30;98683.78;;;7.76;100.00
39897;BME280;25567;48.276;14.242;2022-10-26T04:17:59;98694.97;;;7.78;100.00
39897;BME280;25567;48.276;14.242;2022-10-26T04:20:29;98706.16;;;7.80;100.00
39897;BME280;25567;48.276;14.242;2022-10-26T04:23:00;98721.16;;;7.99;100.00
39897;BME280;25567;48.276;14.242;2022-10-26T04:25:29;98735.38;;;8.12;100.00
39897;BME280;25567;48.276;14.242;2022-10-26T04:27:59;98724.22;;;8.03;100.00
39897;BME280;25567;48.276;14.242;2022-10-26T04:30:26;98715.66;;;8.01;100.00
39897;BME280;25567;48.276;14.242;2022-10-26T04:32:53;98714.66;;;8.02;100.00
39897;BME280;25567;48.276;14.242;2022-10-26T04:35:20;98704.31;;;8.00;100.00
39897;BME280;25567;48.276;14.242;2022-10-26T04:37:46;98703.28;;;8.01;100.00
39897;BME280;25567;48.276;14.242;2022-10-26T04:40:13;98720.97;;;8.14;100.00
39897;BME280;25567;48.276;14.242;2022-10-26T04:42:42;98734.19;;;8.08;100.00
39897;BME280;25567;48.276;14.242;2022-10-26T04:45:11;98732.13;;;8.03;100.00
39897;BME280;25567;48.276;14.242;2022-10-26T04:47:38;98718.72;;;8.05;100.00
39897;BME280;25567;48.276;14.242;2022-10-26T04:50:06;98718.50;;;8.06;100.00
39897;BME280;25567;48.276;14.242;2022-10-26T04:52:33;98721.56;;;8.10;100.00
39897;BME280;25567;48.276;14.242;2022-10-26T04:55:00;98723.19;;;8.11;100.00
39897;BME280;25567;48.276;14.242;2022-10-26T04:57:27;98726.63;;;8.11;100.00
39897;BME280;25567;48.276;14.242;2022-10-26T04:59:54;98728.06;;;8.14;100.00
39897;BME280;25567;48.276;14.242;2022-10-26T05:02:20;98708.53;;;8.15;100.00
39897;BME280;25567;48.276;14.242;2022-10-26T05:04:47;98696.34;;;8.14;100.00
39897;BME280;25567;48.276;14.242;2022-10-26T05:07:14;98698.38;;;8.18;100.00
39897;BME280;25567;48.276;14.242;2022-10-26T05:09:40;98691.88;;;8.21;100.00
39897;BME280;25567;48.276;14.242;2022-10-26T05:12:07;98679.25;;;8.23;100.00
39897;BME280;25567;48.276;14.242;2022-10-26T05:14:34;98672.56;;;8.21;100.00
39897;BME280;25567;48.276;14.242;2022-10-26T05:17:00;98677.84;;;8.21;100.00
39897;BME280;25567;48.276;14.242;2022-10-26T05:19:27;98684.53;;;8.23;100.00
39897;BME280;25567;48.276;14.242;2022-10-26T05:21:54;98686.16;;;8.24;100.00
39897;BME280;25567;48.276;14.242;2022-10-26T05:24:20;98677.44;;;8.24;100.00
39897;BME280;25567;48.276;14.242;2022-10-26T05:26:47;98667.47;;;8.19;100.00
39897;BME280;25567;48.276;14.242;2022-10-26T05:29:14;98671.13;;;8.18;100.00
39897;BME280;25567;48.276;14.242;2022-10-26T05:31:40;98679.28;;;8.16;100.00
39897;BME280;25567;48.276;14.242;2022-10-26T05:34:07;98670.13;;;8.19;100.00
39897;BME280;25567;48.276;14.242;2022-10-26T05:36:34;98668.50;;;8.18;100.00
39897;BME280;25567;48.276;14.242;2022-10-26T05:39:00;98683.53;;;8.17;100.00
39897;BME280;25567;48.276;14.242;2022-10-26T05:41:27;98683.75;;;8.16;100.00
39897;BME280;25567;48.276;14.242;2022-10-26T05:43:54;98689.44;;;8.26;100.00
39897;BME280;25567;48.276;14.242;2022-10-26T05:46:20;98695.09;;;8.23;100.00
39897;BME280;25567;48.276;14.242;2022-10-26T05:48:47;98690.41;;;8.39;100.00
39897;BME280;25567;48.276;14.242;2022-10-26T05:51:14;98686.34;;;8.29;100.00
39897;BME280;25567;48.276;14.242;2022-10-26T05:53:41;98679.66;;;8.27;100.00
39897;BME280;25567;48.276;14.242;2022-10-26T05:56:17;98690.66;;;8.24;100.00
39897;BME280;25567;48.276;14.242;2022-10-26T05:58:46;98685.50;;;8.42;100.00
39897;BME280;25567;48.276;14.242;2022-10-26T06:01:20;98678.63;;;8.34;100.00
39897;BME280;25567;48.276;14.242;2022-10-26T06:06:38;98697.50;;;8.45;100.00
39897;BME280;25567;48.276;14.242;2022-10-26T06:09:05;98708.44;;;8.62;100.00
39897;BME280;25567;48.276;14.242;2022-10-26T06:11:32;98728.41;;;8.51;100.00
39897;BME280;25567;48.276;14.242;2022-10-26T06:14:00;98738.41;;;8.49;100.00
39897;BME280;25567;48.276;14.242;2022-10-26T06:24:32;98750.78;;;8.35;100.00
39897;BME280;25567;48.276;14.242;2022-10-26T06:27:21;98742.66;;;8.37;100.00
39897;BME280;25567;48.276;14.242;2022-10-26T06:30:06;98758.28;;;8.38;100.00
39897;BME280;25567;48.276;14.242;2022-10-26T06:32:35;98779.25;;;8.40;100.00
39897;BME280;25567;48.276;14.242;2022-10-26T06:37:47;98798.38;;;8.48;100.00
39897;BME280;25567;48.276;14.242;2022-10-26T06:40:16;98796.56;;;8.49;100.00
39897;BME280;25567;48.276;14.242;2022-10-26T06:42:43;98802.03;;;8.47;100.00
39897;BME280;25567;48.276;14.242;2022-10-26T06:45:12;98793.28;;;8.47;100.00
39897;BME280;25567;48.276;14.242;2022-10-26T06:47:58;98787.75;;;8.62;100.00
39897;BME280;25567;48.276;14.242;2022-10-26T06:53:32;98772.31;;;8.59;100.00
39897;BME280;25567;48.276;14.242;2022-10-26T06:56:01;98763.38;;;8.60;100.00
39897;BME280;25567;48.276;14.242;2022-10-26T06:58:32;98761.53;;;8.60;100.00
39897;BME280;25567;48.276;14.242;2022-10-26T07:01:00;98770.28;;;8.61;100.00
39897;BME280;25567;48.276;14.242;2022-10-26T07:03:27;98787.38;;;8.65;100.00
39897;BME280;25567;48.276;14.242;2022-10-26T07:05:54;98790.81;;;8.65;100.00
39897;BME280;25567;48.276;14.242;2022-10-26T07:08:20;98790.00;;;8.65;100.00
39897;BME280;25567;48.276;14.242;2022-10-26T07:10:47;98788.97;;;8.66;100.00
39897;BME280;25567;48.276;14.242;2022-10-26T07:13:14;98781.66;;;8.68;100.00
39897;BME280;25567;48.276;14.242;2022-10-26T07:15:40;98786.50;;;8.71;100.00
39897;BME280;25567;48.276;14.242;2022-10-26T07:18:08;98801.97;;;8.81;100.00
39897;BME280;25567;48.276;14.242;2022-10-26T07:20:38;98800.31;;;8.87;100.00
39897;BME280;25567;48.276;14.242;2022-10-26T07:23:05;98803.97;;;8.85;100.00
39897;BME280;25567;48.276;14.242;2022-10-26T07:25:34;98813.28;;;8.95;100.00
39897;BME280;25567;48.276;14.242;2022-10-26T07:28:01;98811.47;;;8.95;100.00
39897;BME280;25567;48.276;14.242;2022-10-26T07:30:28;98825.31;;;8.97;100.00
39897;BME280;25567;48.276;14.242;2022-10-26T07:33:05;98824.91;;;8.87;100.00
39897;BME280;25567;48.276;14.242;2022-10-26T07:35:33;98822.69;;;8.84;100.00
39897;BME280;25567;48.276;14.242;2022-10-26T07:37:59;98834.91;;;8.85;100.00
39897;BME280;25567;48.276;14.242;2022-10-26T07:40:27;98837.13;;;8.88;100.00
39897;BME280;25567;48.276;14.242;2022-10-26T07:42:56;98839.16;;;8.93;100.00
39897;BME280;25567;48.276;14.242;2022-10-26T07:45:24;98847.91;;;8.93;100.00
39897;BME280;25567;48.276;14.242;2022-10-26T07:47:51;98856.47;;;8.95;100.00
39897;BME280;25567;48.276;14.242;2022-10-26T07:50:18;98859.28;;;9.00;100.00
39897;BME280;25567;48.276;14.242;2022-10-26T07:52:45;98869.47;;;9.04;100.00
39897;BME280;25567;48.276;14.242;2022-10-26T07:55:12;98875.53;;;9.11;100.00
39897;BME280;25567;48.276;14.242;2022-10-26T07:57:38;98879.63;;;9.07;100.00
39897;BME280;25567;48.276;14.242;2022-10-26T08:00:07;98867.41;;;9.06;100.00
39897;BME280;25567;48.276;14.242;2022-10-26T08:02:34;98870.81;;;9.26;100.00
39897;BME280;25567;48.276;14.242;2022-10-26T08:05:01;98876.84;;;9.40;100.00
39897;BME280;25567;48.276;14.242;2022-10-26T08:07:28;98898.22;;;9.39;100.00
39897;BME280;25567;48.276;14.242;2022-10-26T08:09:54;98910.84;;;9.50;100.00
39897;BME280;25567;48.276;14.242;2022-10-26T08:12:21;98910.59;;;9.58;100.00
39897;BME280;25567;48.276;14.242;2022-10-26T08:14:48;98901.41;;;9.61;100.00
39897;BME280;25567;48.276;14.242;2022-10-26T08:17:19;98892.81;;;9.65;100.00
39897;BME280;25567;48.276;14.242;2022-10-26T08:19:47;98885.75;;;9.59;100.00
39897;BME280;25567;48.276;14.242;2022-10-26T08:22:14;98889.22;;;9.53;100.00
39897;BME280;25567;48.276;14.242;2022-10-26T08:24:41;98886.50;;;9.66;100.00
39897;BME280;25567;48.276;14.242;2022-10-26T08:27:09;98895.06;;;9.68;100.00
39897;BME280;25567;48.276;14.242;2022-10-26T08:29:36;98899.44;;;9.88;100.00
39897;BME280;25567;48.276;14.242;2022-10-26T08:32:02;98898.06;;;10.11;100.00
39897;BME280;25567;48.276;14.242;2022-10-26T08:34:29;98895.84;;;10.08;100.00
39897;BME280;25567;48.276;14.242;2022-10-26T08:36:56;98904.41;;;10.10;100.00
39897;BME280;25567;48.276;14.242;2022-10-26T08:39:23;98906.44;;;10.08;100.00
39897;BME280;25567;48.276;14.242;2022-10-26T08:41:55;98907.22;;;10.15;100.00
39897;BME280;25567;48.276;14.242;2022-10-26T08:44:30;98896.63;;;10.15;100.00
39897;BME280;25567;48.276;14.242;2022-10-26T08:47:07;98888.44;;;10.16;100.00
39897;BME280;25567;48.276;14.242;2022-10-26T08:49:44;98888.19;;;10.25;100.00
39897;BME280;25567;48.276;14.242;2022-10-26T08:52:18;98895.94;;;10.51;100.00
39897;BME280;25567;48.276;14.242;2022-10-26T08:54:51;98895.34;;;10.75;100.00
39897;BME280;25567;48.276;14.242;2022-10-26T08:57:24;98887.97;;;10.77;100.00
39897;BME280;25567;48.276;14.242;2022-10-26T08:59:58;98886.66;;;10.86;100.00
39897;BME280;25567;48.276;14.242;2022-10-26T09:02:25;98878.84;;;10.91;100.00
39897;BME280;25567;48.276;14.242;2022-10-26T09:04:53;98875.63;;;11.08;100.00
39897;BME280;25567;48.276;14.242;2022-10-26T09:07:39;98866.91;;;11.19;100.00
39897;BME280;25567;48.276;14.242;2022-10-26T09:20:45;98905.09;;;11.55;100.00
39897;BME280;25567;48.276;14.242;2022-10-26T09:26:28;98903.34;;;11.49;100.00
39897;BME280;25567;48.276;14.242;2022-10-26T09:28:57;98906.56;;;11.51;100.00
39897;BME280;25567;48.276;14.242;2022-10-26T09:31:27;98918.13;;;11.75;100.00
39897;BME280;25567;48.276;14.242;2022-10-26T09:33:55;98916.97;;;11.71;100.00
39897;BME280;25567;48.276;14.242;2022-10-26T09:36:23;98928.41;;;11.72;100.00
39897;BME280;25567;48.276;14.242;2022-10-26T09:38:57;98927.38;;;11.73;100.00
39897;BME280;25567;48.276;14.242;2022-10-26T09:41:36;98929.44;;;11.71;100.00
39897;BME280;25567;48.276;14.242;2022-10-26T09:44:23;98927.19;;;11.86;100.00
39897;BME280;25567;48.276;14.242;2022-10-26T09:47:12;98920.09;;;11.98;100.00
39897;BME280;25567;48.276;14.242;2022-10-26T09:49:51;98912.94;;;12.11;100.00
39897;BME280;25567;48.276;14.242;2022-10-26T09:52:19;98911.16;;;12.23;100.00
39897;BME280;25567;48.276;14.242;2022-10-26T09:54:46;98910.50;;;12.63;100.00
39897;BME280;25567;48.276;14.242;2022-10-26T09:57:15;98912.53;;;13.32;100.00
39897;BME280;25567;48.276;14.242;2022-10-26T09:59:44;98920.47;;;13.97;100.00
39897;BME280;25567;48.276;14.242;2022-10-26T10:02:31;98907.66;;;14.45;96.48
39897;BME280;25567;48.276;14.242;2022-10-26T10:04:59;98906.31;;;14.76;95.90
39897;BME280;25567;48.276;14.242;2022-10-26T10:07:26;98898.31;;;14.76;91.52
39897;BME280;25567;48.276;14.242;2022-10-26T10:10:11;98899.59;;;14.74;92.76
39897;BME280;25567;48.276;14.242;2022-10-26T10:12:40;98899.09;;;14.43;94.69
39897;BME280;25567;48.276;14.242;2022-10-26T10:15:23;98893.91;;;14.36;95.14
39897;BME280;25567;48.276;14.242;2022-10-26T10:17:53;98909.44;;;14.22;96.25
39897;BME280;25567;48.276;14.242;2022-10-26T10:20:27;98910.53;;;14.09;98.49
39897;BME280;25567;48.276;14.242;2022-10-26T10:22:56;98905.94;;;14.05;100.00
39897;BME280;25567;48.276;14.242;2022-10-26T10:25:38;98911.28;;;14.05;100.00
39897;BME280;25567;48.276;14.242;2022-10-26T10:28:21;98900.13;;;14.08;100.00
39897;BME280;25567;48.276;14.242;2022-10-26T10:30:54;98905.38;;;14.02;99.38
39897;BME280;25567;48.276;14.242;2022-10-26T10:33:31;98903.44;;;14.15;98.68
39897;BME280;25567;48.276;14.242;2022-10-26T10:35:58;98896.50;;;14.14;98.49
39897;BME280;25567;48.276;14.242;2022-10-26T10:38:28;98896.94;;;13.94;99.12
39897;BME280;25567;48.276;14.242;2022-10-26T10:40:57;98893.28;;;13.83;99.32
39897;BME280;25567;48.276;14.242;2022-10-26T10:43:26;98896.88;;;13.89;96.80
39897;BME280;25567;48.276;14.242;2022-10-26T10:45:55;98889.53;;;14.13;95.67
39897;BME280;25567;48.276;14.242;2022-10-26T10:48:27;98899.53;;;14.06;96.14
39897;BME280;25567;48.276;14.242;2022-10-26T10:50:55;98888.34;;;14.21;94.32
39897;BME280;25567;48.276;14.242;2022-10-26T10:53:28;98894.06;;;14.12;95.13
39897;BME280;25567;48.276;14.242;2022-10-26T10:58:43;98892.44;;;13.94;96.39
39897;BME280;25567;48.276;14.242;2022-10-26T11:01:20;98898.91;;;13.98;96.86
39897;BME280;25567;48.276;14.242;2022-10-26T11:04:35;98899.31;;;14.07;94.26
39897;BME280;25567;48.276;14.242;2022-10-26T11:06:45;98896.66;;;14.07;93.91
39897;BME280;25567;48.276;14.242;2022-10-26T11:09:15;98894.47;;;14.21;93.41
39897;BME280;25567;48.276;14.242;2022-10-26T11:11:49;98901.59;;;14.15;92.32
39897;BME280;25567;48.276;14.242;2022-10-26T11:14:36;98905.72;;;14.23;91.12
39897;BME280;25567;48.276;14.242;2022-10-26T11:19:46;98906.03;;;14.10;92.25
39897;BME280;25567;48.276;14.242;2022-10-26T11:22:23;98901.69;;;14.21;92.13
39897;BME280;25567;48.276;14.242;2022-10-26T11:25:02;98905.47;;;14.25;91.32
39897;BME280;25567;48.276;14.242;2022-10-26T11:27:41;98900.31;;;14.18;92.25
39897;BME280;25567;48.276;14.242;2022-10-26T11:30:27;98892.38;;;14.06;92.71
39897;BME280;25567;48.276;14.242;2022-10-26T11:35:36;98899.00;;;14.04;92.94
39897;BME280;25567;48.276;14.242;2022-10-26T11:38:16;98896.50;;;14.14;91.88
39897;BME280;25567;48.276;14.242;2022-10-26T11:41:13;98895.03;;;14.06;92.32
39897;BME280;25567;48.276;14.242;2022-10-26T11:43:46;98893.75;;;14.09;93.88
39897;BME280;25567;48.276;14.242;2022-10-26T11:46:30;98896.41;;;14.09;94.38
39897;BME280;25567;48.276;14.242;2022-10-26T11:49:03;98891.47;;;14.17;93.57
39897;BME280;25567;48.276;14.242;2022-10-26T11:51:51;98901.00;;;14.13;93.00
39897;BME280;25567;48.276;14.242;2022-10-26T11:54:27;98887.75;;;14.18;95.13
39897;BME280;25567;48.276;14.242;2022-10-26T11:56:57;98899.91;;;14.26;93.65
39897;BME280;25567;48.276;14.242;2022-10-26T11:59:27;98904.50;;;14.31;92.62
39897;BME280;25567;48.276;14.242;2022-10-26T12:02:06;98892.06;;;14.37;92.00
39897;BME280;25567;48.276;14.242;2022-10-26T12:04:37;98888.50;;;14.31;91.77
39897;BME280;25567;48.276;14.242;2022-10-26T12:07:10;98893.91;;;14.36;91.99
39897;BME280;25567;48.276;14.242;2022-10-26T12:09:41;98900.78;;;14.32;91.25
39897;BME280;25567;48.276;14.242;2022-10-26T12:12:21;98898.78;;;14.39;91.37
39897;BME280;25567;48.276;14.242;2022-10-26T12:15:02;98898.53;;;14.41;91.56
39897;BME280;25567;48.276;14.242;2022-10-26T12:17:35;98897.78;;;14.45;91.29
39897;BME280;25567;48.276;14.242;2022-10-26T12:20:47;98898.03;;;14.44;89.62
39897;BME280;25567;48.276;14.242;2022-10-26T12:23:09;98895.88;;;14.41;90.36
39897;BME280;25567;48.276;14.242;2022-10-26T12:25:42;98895.94;;;14.46;89.74
39897;BME280;25567;48.276;14.242;2022-10-26T12:28:40;98883.31;;;14.41;90.54
39897;BME280;25567;48.276;14.242;2022-10-26T12:34:13;98893.84;;;14.48;90.22
39897;BME280;25567;48.276;14.242;2022-10-26T12:39:36;98901.69;;;14.38;91.06
39897;BME280;25567;48.276;14.242;2022-10-26T12:44:34;98906.63;;;14.46;91.89
39897;BME280;25567;48.276;14.242;2022-10-26T12:47:01;98912.28;;;14.32;93.71
39897;BME280;25567;48.276;14.242;2022-10-26T12:58:49;98910.75;;;14.37;92.09
39897;BME280;25567;48.276;14.242;2022-10-26T13:01:25;98904.19;;;14.27;92.41
39897;BME280;25567;48.276;14.242;2022-10-26T13:04:15;98908.31;;;14.18;93.62
39897;BME280;25567;48.276;14.242;2022-10-26T13:07:21;98903.22;;;14.16;95.13
39897;BME280;25567;48.276;14.242;2022-10-26T13:09:59;98908.94;;;14.25;94.05
39897;BME280;25567;48.276;14.242;2022-10-26T13:12:33;98907.31;;;14.24;93.27
39897;BME280;25567;48.276;14.242;2022-10-26T13:15:04;98913.56;;;14.30;93.92
39897;BME280;25567;48.276;14.242;2022-10-26T13:17:32;98907.84;;;14.38;94.29
39897;BME280;25567;48.276;14.242;2022-10-26T13:20:02;98914.72;;;14.34;93.77
39897;BME280;25567;48.276;14.242;2022-10-26T13:22:30;98917.53;;;14.27;94.69
39897;BME280;25567;48.276;14.242;2022-10-26T13:25:00;98928.06;;;14.34;94.30
39897;BME280;25567;48.276;14.242;2022-10-26T13:27:41;98923.69;;;14.45;94.55
39897;BME280;25567;48.276;14.242;2022-10-26T13:32:38;98896.91;;;14.23;94.41
39897;BME280;25567;48.276;14.242;2022-10-26T13:35:11;98913.75;;;14.23;93.95
39897;BME280;25567;48.276;14.242;2022-10-26T13:37:43;98917.06;;;14.47;92.40
39897;BME280;25567;48.276;14.242;2022-10-26T13:40:16;98919.81;;;14.52;93.92
39897;BME280;25567;48.276;14.242;2022-10-26T13:42:47;98930.97;;;14.32;94.42
39897;BME280;25567;48.276;14.242;2022-10-26T13:45:20;98928.13;;;14.56;93.46
39897;BME280;25567;48.276;14.242;2022-10-26T13:48:04;98932.28;;;14.47;93.96
39897;BME280;25567;48.276;14.242;2022-10-26T13:50:37;98937.63;;;14.47;93.74
39897;BME280;25567;48.276;14.242;2022-10-26T13:53:11;98939.13;;;14.43;93.61
39897;BME280;25567;48.276;14.242;2022-10-26T13:55:49;98936.28;;;14.49;93.16
39897;BME280;25567;48.276;14.242;2022-10-26T14:01:02;98938.66;;;14.46;92.18
39897;BME280;25567;48.276;14.242;2022-10-26T14:03:29;98934.44;;;14.33;92.53
39897;BME280;25567;48.276;14.242;2022-10-26T14:05:56;98936.22;;;14.27;93.32
39897;BME280;25567;48.276;14.242;2022-10-26T14:08:23;98937.00;;;14.28;91.67
39897;BME280;25567;48.276;14.242;2022-10-26T14:10:54;98955.44;;;14.29;90.57
39897;BME280;25567;48.276;14.242;2022-10-26T14:13:24;98955.34;;;14.24;91.49
39897;BME280;25567;48.276;14.242;2022-10-26T14:15:53;98949.81;;;14.26;93.31
39897;BME280;25567;48.276;14.242;2022-10-26T14:18:24;98948.41;;;14.23;93.63
39897;BME280;25567;48.276;14.242;2022-10-26T14:26:40;98941.88;;;14.48;94.01
39897;BME280;25567;48.276;14.242;2022-10-26T14:29:16;98961.91;;;14.33;94.67
39897;BME280;25567;48.276;14.242;2022-10-26T14:31:43;98949.25;;;14.41;94.23